createdAt,value
2018-08-03T00:00:46.055Z,100689.09
2018-08-03T00:02:22.981Z,100644.37
2018-08-03T00:04:00.060Z,100576.59
2018-08-03T00:05:36.739Z,100558.35
2018-08-03T00:07:20.458Z,100576.70
2018-08-03T00:08:56.986Z,100588.76
2018-08-03T00:10:33.820Z,100595.96
2018-08-03T00:12:12.146Z,100591.00
2018-08-03T00:13:48.528Z,100604.04
2018-08-03T00:15:28.310Z,100611.21
2018-08-03T00:17:06.758Z,100627.74
2018-08-03T00:18:44.541Z,100643.38
2018-08-03T00:20:23.796Z,100612.23
2018-08-03T00:22:00.270Z,100592.24
2018-08-03T00:23:37.064Z,100600.66
2018-08-03T00:25:16.274Z,100614.58
2018-08-03T00:26:54.284Z,100607.87
2018-08-03T00:28:31.575Z,100598.54
2018-08-03T00:30:09.153Z,100576.70
2018-08-03T00:31:47.420Z,100586.02
2018-08-03T00:33:23.968Z,100552.62
2018-08-03T00:35:00.389Z,100497.80
2018-08-03T00:36:37.369Z,100408.23
2018-08-03T00:38:14.654Z,100359.37
2018-08-03T00:39:51.805Z,100301.63
2018-08-03T00:41:28.333Z,100265.55
2018-08-03T00:43:05.478Z,100232.93
2018-08-03T00:44:44.437Z,100212.98
2018-08-03T00:46:32.975Z,100225.02
2018-08-03T00:55:46.644Z,100179.31
2018-08-03T01:01:16.080Z,100174.84
2018-08-03T01:02:52.436Z,100185.25
2018-08-03T01:04:28.880Z,100184.77
2018-08-03T01:06:05.425Z,100186.50
2018-08-03T01:07:43.678Z,100205.30
2018-08-03T01:09:20.384Z,100246.33
2018-08-03T01:10:56.789Z,100245.57
2018-08-03T01:12:33.257Z,100251.28
2018-08-03T01:14:11.141Z,100216.09
2018-08-03T01:15:47.942Z,100228.73
2018-08-03T01:17:24.472Z,100197.02
2018-08-03T01:19:01.408Z,100183.28
2018-08-03T01:20:38.316Z,100204.70
2018-08-03T01:22:14.800Z,100181.17
2018-08-03T01:23:51.945Z,100134.49
2018-08-03T01:25:28.767Z,100100.72
2018-08-03T01:27:06.996Z,100064.31
2018-08-03T01:28:43.780Z,100002.81
2018-08-03T01:30:20.612Z,99982.14
2018-08-03T01:31:57.437Z,100007.39
2018-08-03T01:33:34.297Z,99994.50
2018-08-03T01:35:10.659Z,99998.09
2018-08-03T01:36:47.199Z,99971.15
2018-08-03T01:38:23.555Z,99984.86
2018-08-03T01:39:59.963Z,99974.36
2018-08-03T01:41:36.491Z,100001.30
2018-08-03T01:43:12.792Z,100015.66
2018-08-03T01:44:49.411Z,99982.75
2018-08-03T01:46:25.841Z,99960.98
2018-08-03T01:48:02.257Z,99959.25
2018-08-03T01:49:38.650Z,99940.21
2018-08-03T01:51:15.037Z,99997.23
2018-08-03T01:52:58.493Z,99992.28
2018-08-03T01:54:34.891Z,99946.03
2018-08-03T01:56:11.304Z,99991.06
2018-08-03T01:57:47.782Z,100031.39
2018-08-03T01:59:24.763Z,100070.63
2018-08-03T02:01:01.732Z,100128.55
2018-08-03T02:02:38.325Z,100125.83
2018-08-03T02:04:15.170Z,100144.52
2018-08-03T02:05:52.106Z,100202.09
2018-08-03T02:07:28.553Z,100178.45
2018-08-03T02:09:07.075Z,100156.16
2018-08-03T02:10:43.401Z,100166.08
2018-08-03T02:12:20.346Z,100142.05
2018-08-03T02:13:56.796Z,100087.83
2018-08-03T02:15:33.581Z,100064.28
2018-08-03T02:17:10.083Z,100031.02
2018-08-03T02:18:47.581Z,100047.84
2018-08-03T02:20:23.954Z,100059.97
2018-08-03T02:22:00.443Z,100084.09
2018-08-03T02:23:36.882Z,100116.53
2018-08-03T02:25:13.824Z,100150.83
2018-08-03T02:26:50.300Z,100117.02
2018-08-03T02:28:27.654Z,100141.04
2018-08-03T02:30:04.826Z,100204.43
2018-08-03T02:31:43.937Z,100214.61
2018-08-03T02:33:20.454Z,100222.28
2018-08-03T02:34:56.929Z,100236.89
2018-08-03T02:36:33.436Z,100231.67
2018-08-03T02:38:10.371Z,100233.03
2018-08-03T02:39:46.896Z,100282.84
2018-08-03T02:41:23.303Z,100280.22
2018-08-03T02:42:59.971Z,100285.67
2018-08-03T02:44:36.885Z,100321.11
2018-08-03T02:46:13.609Z,100350.36
2018-08-03T02:47:49.987Z,100371.19
2018-08-03T02:49:26.952Z,100352.59
2018-08-03T02:51:03.739Z,100368.20
2018-08-03T02:52:41.733Z,100362.75
2018-08-03T02:54:19.591Z,100420.42
2018-08-03T02:55:57.107Z,100457.01
2018-08-03T02:57:33.770Z,100449.92
2018-08-03T02:59:10.281Z,100429.47
2018-08-03T03:00:46.734Z,100462.95
2018-08-03T03:02:23.079Z,100485.65
2018-08-03T03:03:59.862Z,100468.78
2018-08-03T03:05:36.204Z,100483.91
2018-08-03T03:07:13.351Z,100498.64
2018-08-03T03:08:49.768Z,100513.42
2018-08-03T03:10:27.137Z,100509.44
2018-08-03T03:12:03.852Z,100525.09
2018-08-03T03:13:40.131Z,100571.97
2018-08-03T03:15:17.096Z,100575.19
2018-08-03T03:16:53.895Z,100556.95
2018-08-03T03:18:30.357Z,100507.34
2018-08-03T03:20:06.899Z,100483.40
2018-08-03T03:21:43.833Z,100525.31
2018-08-03T03:23:20.726Z,100638.72
2018-08-03T03:24:57.854Z,100665.92
2018-08-03T03:26:34.223Z,100723.05
2018-08-03T03:28:10.597Z,100711.50
2018-08-03T03:29:47.362Z,100740.91
2018-08-03T03:31:25.206Z,100711.50
2018-08-03T03:33:01.627Z,100672.84
2018-08-03T03:34:37.934Z,100666.52
2018-08-03T03:36:14.323Z,100713.85
2018-08-03T03:37:50.536Z,100710.73
2018-08-03T03:39:27.052Z,100738.92
2018-08-03T03:41:03.472Z,100717.45
2018-08-03T03:42:40.180Z,100688.58
2018-08-03T03:44:16.417Z,100704.66
2018-08-03T03:45:53.104Z,100756.94
2018-08-03T03:47:29.350Z,100799.78
2018-08-03T03:49:06.329Z,100764.39
2018-08-03T03:50:42.776Z,100764.64
2018-08-03T03:52:19.105Z,100701.13
2018-08-03T03:53:56.039Z,100667.37
2018-08-03T03:55:33.585Z,100690.47
2018-08-03T03:57:10.068Z,100647.76
2018-08-03T03:58:46.370Z,100661.53
2018-08-03T04:00:23.089Z,100675.41
2018-08-03T04:02:00.220Z,100634.34
2018-08-03T04:03:36.977Z,100625.05
2018-08-03T04:05:13.711Z,100598.34
2018-08-03T04:06:50.891Z,100603.70
2018-08-03T04:08:28.310Z,100644.76
2018-08-03T04:10:05.769Z,100604.53
2018-08-03T04:11:42.806Z,100547.10
2018-08-03T04:13:21.584Z,100558.63
2018-08-03T04:14:58.121Z,100544.87
2018-08-03T04:16:34.644Z,100562.61
2018-08-03T04:18:17.338Z,100576.63
2018-08-03T04:19:54.707Z,100588.15
2018-08-03T04:21:31.321Z,100629.24
2018-08-03T04:23:08.125Z,100625.27
2018-08-03T04:24:44.655Z,100715.86
2018-08-03T04:26:21.060Z,100733.31
2018-08-03T04:27:57.739Z,100790.56
2018-08-03T04:29:35.480Z,100810.67
2018-08-03T04:31:12.481Z,100840.63
2018-08-03T04:32:48.765Z,100871.91
2018-08-03T04:34:26.032Z,100906.72
2018-08-03T04:36:02.396Z,100964.41
2018-08-03T04:37:39.578Z,101031.97
2018-08-03T04:39:15.952Z,101072.25
2018-08-03T04:40:53.639Z,101146.17
2018-08-03T04:42:30.059Z,101221.33
2018-08-03T04:44:08.110Z,101290.87
2018-08-03T04:45:45.633Z,101333.45
2018-08-03T04:47:22.410Z,101455.33
2018-08-03T04:48:58.792Z,101533.03
2018-08-03T04:50:35.670Z,101655.57
2018-08-03T04:52:12.097Z,101749.91
2018-08-03T04:53:48.923Z,101779.55
2018-08-03T04:55:25.302Z,101780.05
2018-08-03T04:57:02.213Z,101820.88
2018-08-03T04:58:41.390Z,101834.00
2018-08-03T05:00:18.740Z,101876.31
2018-08-03T05:01:55.611Z,102016.70
2018-08-03T05:03:32.818Z,102137.66
2018-08-03T05:05:09.852Z,102211.98
2018-08-03T05:06:49.242Z,102281.40
2018-08-03T05:08:25.585Z,102349.88
2018-08-03T05:10:08.626Z,102434.20
2018-08-03T05:11:45.402Z,102445.95
2018-08-03T05:13:22.042Z,102458.22
2018-08-03T05:14:58.328Z,102538.98
2018-08-03T05:16:35.833Z,102588.54
2018-08-03T05:18:12.175Z,102617.98
2018-08-03T05:19:48.847Z,102657.63
2018-08-03T05:21:25.775Z,102627.02
2018-08-03T05:23:02.246Z,102610.31
2018-08-03T05:24:40.094Z,102601.30
2018-08-03T05:26:17.642Z,102610.31
2018-08-03T05:27:54.136Z,102599.05
2018-08-03T05:29:30.300Z,102620.64
2018-08-03T05:31:07.848Z,102697.89
2018-08-03T05:32:45.648Z,102702.02
2018-08-03T05:34:23.055Z,102699.36
2018-08-03T05:35:59.677Z,102646.45
2018-08-03T05:37:36.310Z,102650.56
2018-08-03T05:39:13.127Z,102678.95
2018-08-03T05:40:49.580Z,102740.34
2018-08-03T05:42:26.010Z,102773.35
2018-08-03T05:44:02.653Z,102750.85
2018-08-03T05:45:40.002Z,102688.09
2018-08-03T05:47:17.455Z,102816.27
2018-08-03T05:48:59.565Z,102917.50
2018-08-03T05:50:41.384Z,102930.28
2018-08-03T05:52:18.473Z,102848.41
2018-08-03T05:53:59.631Z,102831.22
2018-08-03T05:55:48.185Z,102878.28
2018-08-03T05:57:24.887Z,102870.52
2018-08-03T05:59:01.819Z,102755.37
2018-08-03T06:00:38.458Z,102876.50
2018-08-03T06:02:15.716Z,103055.51
2018-08-03T06:03:53.715Z,103202.09
2018-08-03T06:05:31.248Z,103340.35
2018-08-03T06:07:07.541Z,103377.92
2018-08-03T06:08:44.013Z,103119.77
2018-08-03T06:10:20.386Z,102899.91
2018-08-03T06:11:57.162Z,102765.19
2018-08-03T06:13:33.651Z,102585.00
2018-08-03T06:15:14.602Z,102754.40
2018-08-03T06:16:50.929Z,103006.55
2018-08-03T06:20:07.590Z,103293.59
2018-08-03T06:21:45.598Z,103242.38
2018-08-03T06:23:22.877Z,103245.62
2018-08-03T06:25:01.341Z,103377.44
2018-08-03T06:26:38.595Z,103477.61
2018-08-03T06:28:16.562Z,103567.46
2018-08-03T06:29:53.674Z,103661.33
2018-08-03T06:31:37.396Z,103697.75
2018-08-03T06:33:13.622Z,103717.69
2018-08-03T06:34:51.009Z,103738.03
2018-08-03T06:36:28.922Z,103801.60
2018-08-03T06:38:05.756Z,103810.30
2018-08-03T06:39:42.037Z,103855.75
2018-08-03T06:41:18.342Z,103852.59
2018-08-03T06:42:55.656Z,103669.01
2018-08-03T06:44:33.601Z,103570.83
2018-08-03T06:46:10.208Z,103571.32
2018-08-03T06:47:47.110Z,103287.98
2018-08-03T06:49:24.667Z,103065.17
2018-08-03T06:51:00.994Z,102839.97
2018-08-03T06:52:37.287Z,103026.20
2018-08-03T06:54:13.577Z,103259.30
2018-08-03T06:55:50.595Z,103344.03
2018-08-03T06:57:26.960Z,103263.76
2018-08-03T06:59:04.003Z,103378.92
2018-08-03T07:00:41.036Z,103181.34
2018-08-03T07:02:18.594Z,102802.25
2018-08-03T07:03:54.933Z,102501.58
2018-08-03T07:05:30.929Z,102582.34
2018-08-03T07:07:07.376Z,102642.33
2018-08-03T07:08:44.910Z,102725.80
2018-08-03T07:10:21.245Z,103023.19
2018-08-03T07:11:59.263Z,103250.47
2018-08-03T07:13:36.746Z,103370.09
2018-08-03T07:15:15.205Z,103443.95
2018-08-03T07:16:53.195Z,103530.99
2018-08-03T07:18:29.576Z,103499.23
2018-08-03T07:20:08.080Z,103029.45
2018-08-03T07:21:45.819Z,102756.86
2018-08-03T07:23:25.344Z,102628.18
2018-08-03T07:25:02.123Z,102591.56
2018-08-03T07:26:38.536Z,102707.92
2018-08-03T07:28:15.309Z,102860.11
2018-08-03T07:29:51.589Z,102898.16
2018-08-03T07:31:28.847Z,102828.45
2018-08-03T07:33:06.136Z,102754.02
2018-08-03T07:34:43.583Z,102919.42
2018-08-03T07:36:20.545Z,103036.45
2018-08-03T07:37:57.041Z,102935.14
2018-08-03T07:39:36.159Z,103141.97
2018-08-03T07:41:14.218Z,103321.81
2018-08-03T07:42:50.703Z,103554.80
2018-08-03T07:44:30.654Z,103746.00
2018-08-03T07:46:11.388Z,103801.78
2018-08-03T07:47:47.790Z,103752.30
2018-08-03T07:49:34.044Z,103963.66
2018-08-03T07:51:11.524Z,103771.87
2018-08-03T07:52:50.454Z,103655.09
2018-08-03T07:54:27.097Z,103552.53
2018-08-03T07:56:05.121Z,103418.72
2018-08-03T07:57:41.567Z,103127.39
2018-08-03T07:59:20.643Z,103050.44
2018-08-03T08:00:57.303Z,103339.36
2018-08-03T08:02:35.846Z,103500.73
2018-08-03T08:04:13.200Z,103754.01
2018-08-03T08:05:55.059Z,103952.61
2018-08-03T08:07:31.491Z,103950.73
2018-08-03T08:09:12.328Z,104119.50
2018-08-03T08:10:49.687Z,104175.98
2018-08-03T08:12:28.471Z,104138.67
2018-08-03T08:14:10.507Z,104107.21
2018-08-03T08:15:47.525Z,104086.25
2018-08-03T08:17:24.998Z,104097.72
2018-08-03T08:19:01.747Z,103977.05
2018-08-03T08:20:40.339Z,103698.41
2018-08-03T08:22:19.898Z,103537.64
2018-08-03T08:23:58.386Z,103362.25
2018-08-03T08:25:37.075Z,103201.35
2018-08-03T08:27:17.724Z,103265.67
2018-08-03T08:28:56.235Z,103535.77
2018-08-03T08:30:38.599Z,103499.50
2018-08-03T08:32:27.479Z,103352.59
2018-08-03T08:34:05.163Z,103324.42
2018-08-03T08:35:45.315Z,103478.00
2018-08-03T08:37:25.887Z,103744.47
2018-08-03T08:39:11.379Z,103882.61
2018-08-03T08:40:47.818Z,104045.34
2018-08-03T08:42:24.578Z,104052.18
2018-08-03T08:44:01.287Z,103896.15
2018-08-03T08:45:40.790Z,103819.37
2018-08-03T08:47:18.735Z,103643.68
2018-08-03T08:49:03.003Z,103599.16
2018-08-03T08:50:42.776Z,103604.11
2018-08-03T08:52:20.269Z,103859.37
2018-08-03T08:53:56.621Z,104088.48
2018-08-03T08:55:34.905Z,104239.73
2018-08-03T08:57:13.497Z,104339.94
2018-08-03T08:58:55.585Z,104348.98
2018-08-03T09:00:35.556Z,104310.31
2018-08-03T09:02:14.304Z,104434.72
2018-08-03T09:03:53.413Z,104497.55
2018-08-03T09:05:32.260Z,104516.27
2018-08-03T09:07:11.375Z,104237.78
2018-08-03T09:08:51.391Z,103836.16
2018-08-03T09:10:32.289Z,103449.69
2018-08-03T09:12:09.950Z,103378.93
2018-08-03T09:14:01.571Z,103265.70
2018-08-03T09:15:47.213Z,103045.94
2018-08-03T09:17:25.306Z,103210.72
2018-08-03T09:19:03.791Z,103514.34
2018-08-03T09:20:41.137Z,103767.25
2018-08-03T09:22:18.393Z,103860.31
2018-08-03T09:23:54.983Z,103889.37
2018-08-03T09:25:33.401Z,103905.27
2018-08-03T09:27:12.514Z,103920.80
2018-08-03T09:28:51.337Z,104002.69
2018-08-03T09:30:31.670Z,104093.09
2018-08-03T09:32:09.540Z,103977.19
2018-08-03T09:33:46.633Z,103726.27
2018-08-03T09:35:23.703Z,103452.60
2018-08-03T09:37:00.142Z,103326.02
2018-08-03T09:38:37.734Z,103204.72
2018-08-03T09:40:17.321Z,103427.54
2018-08-03T09:41:56.253Z,103666.63
2018-08-03T09:43:34.940Z,103859.73
2018-08-03T09:45:50.557Z,103974.80
2018-08-03T09:47:44.589Z,104075.19
2018-08-03T09:49:25.513Z,104197.25
2018-08-03T09:51:12.547Z,104254.66
2018-08-03T09:53:11.287Z,104182.30
2018-08-03T09:54:51.634Z,104268.42
2018-08-03T09:56:28.280Z,104327.54
2018-08-03T09:58:07.964Z,104313.37
2018-08-03T09:59:45.509Z,104296.95
2018-08-03T10:01:22.028Z,104056.11
2018-08-03T10:03:01.555Z,104053.34
2018-08-03T10:04:39.665Z,104134.77
2018-08-03T10:06:16.540Z,104226.36
2018-08-03T10:07:56.641Z,104126.55
2018-08-03T10:09:34.519Z,104241.31
2018-08-03T10:11:12.309Z,104390.79
2018-08-03T10:12:52.521Z,104149.75
2018-08-03T10:14:32.629Z,103903.12
2018-08-03T10:16:11.633Z,103889.91
2018-08-03T10:17:50.662Z,103851.73
2018-08-03T10:19:29.527Z,103722.25
2018-08-03T10:21:05.881Z,103664.46
2018-08-03T10:22:43.257Z,103621.42
2018-08-03T10:24:22.448Z,103807.59
2018-08-03T10:26:01.294Z,103966.25
2018-08-03T10:27:39.798Z,103663.08
2018-08-03T10:29:16.750Z,103457.94
2018-08-03T10:30:55.314Z,103549.50
2018-08-03T10:32:33.902Z,103759.70
2018-08-03T10:34:11.772Z,103851.86
2018-08-03T10:36:01.537Z,103856.50
2018-08-03T10:37:38.603Z,103834.27
2018-08-03T10:39:15.984Z,103699.26
2018-08-03T10:40:55.649Z,103593.91
2018-08-03T10:42:33.826Z,103518.63
2018-08-03T10:44:11.671Z,103510.83
2018-08-03T10:45:49.801Z,103679.72
2018-08-03T10:47:26.299Z,103934.14
2018-08-03T10:49:04.293Z,104028.17
2018-08-03T10:50:42.626Z,103867.19
2018-08-03T10:52:20.701Z,103631.90
2018-08-03T10:53:57.742Z,103600.64
2018-08-03T10:55:35.339Z,103761.89
2018-08-03T10:57:13.701Z,103936.33
2018-08-03T10:58:50.640Z,103974.48
2018-08-03T11:00:31.022Z,103877.67
2018-08-03T11:02:10.557Z,103781.84
2018-08-03T11:03:47.685Z,103742.31
2018-08-03T11:05:25.599Z,103705.39
2018-08-03T11:07:01.928Z,103641.39
2018-08-03T11:08:40.080Z,103697.22
2018-08-03T11:10:17.858Z,103884.05
2018-08-03T11:11:55.517Z,104170.12
2018-08-03T11:13:32.117Z,104260.77
2018-08-03T11:15:09.617Z,104225.25
2018-08-03T11:16:48.116Z,104258.82
2018-08-03T11:18:24.449Z,104079.94
2018-08-03T11:20:00.916Z,103919.42
2018-08-03T11:21:38.768Z,104069.84
2018-08-03T11:23:18.761Z,104156.77
2018-08-03T11:24:55.888Z,104328.11
2018-08-03T11:26:32.793Z,104431.55
2018-08-03T11:28:10.659Z,104437.47
2018-08-03T11:29:55.244Z,104391.89
2018-08-03T11:31:36.895Z,104174.97
2018-08-03T11:33:14.251Z,103973.34
2018-08-03T11:34:51.703Z,103828.37
2018-08-03T11:36:29.354Z,103861.49
2018-08-03T11:38:09.753Z,103645.69
2018-08-03T11:39:50.564Z,103559.30
2018-08-03T11:41:29.552Z,103477.22
2018-08-03T11:43:07.018Z,103517.59
2018-08-03T11:44:46.197Z,103529.72
2018-08-03T11:46:25.346Z,103744.94
2018-08-03T11:48:04.498Z,103982.55
2018-08-03T11:49:41.021Z,104085.47
2018-08-03T11:51:20.327Z,103962.08
2018-08-03T11:52:58.466Z,103915.72
2018-08-03T11:54:38.752Z,104069.92
2018-08-03T11:56:18.396Z,104289.91
2018-08-03T11:58:01.042Z,104367.78
2018-08-03T11:59:42.833Z,104355.48
2018-08-03T12:01:21.683Z,104388.28
2018-08-03T12:02:58.648Z,104425.66
2018-08-03T12:04:43.529Z,104396.52
2018-08-03T12:06:24.904Z,104210.45
2018-08-03T12:08:04.482Z,104288.82
2018-08-03T12:09:42.381Z,104368.97
2018-08-03T12:11:20.937Z,104364.41
2018-08-03T12:12:58.681Z,104313.31
2018-08-03T12:14:36.730Z,104183.95
2018-08-03T12:16:13.392Z,104161.59
2018-08-03T12:17:51.219Z,104132.48
2018-08-03T12:19:35.173Z,103981.89
2018-08-03T12:21:13.849Z,103920.89
2018-08-03T12:22:55.899Z,103914.46
2018-08-03T12:24:34.301Z,104095.98
2018-08-03T12:26:13.046Z,104356.51
2018-08-03T12:27:53.892Z,104481.83
2018-08-03T12:29:30.497Z,104409.34
2018-08-03T12:31:07.623Z,104425.69
2018-08-03T12:32:50.619Z,104500.88
2018-08-03T12:34:30.576Z,104533.23
2018-08-03T12:36:20.652Z,104512.30
2018-08-03T12:38:03.114Z,104533.23
2018-08-03T12:39:40.695Z,104513.69
2018-08-03T12:41:17.400Z,104501.30
2018-08-03T12:42:56.299Z,104518.55
2018-08-03T12:44:35.428Z,104551.87
2018-08-03T12:46:15.643Z,104555.06
2018-08-03T12:47:59.349Z,104630.30
2018-08-03T12:49:40.863Z,104677.33
2018-08-03T12:51:18.468Z,104781.38
2018-08-03T12:52:57.460Z,104805.61
2018-08-03T12:54:35.863Z,104755.77
2018-08-03T12:56:14.780Z,104696.41
2018-08-03T12:57:54.611Z,104669.42
2018-08-03T12:59:33.489Z,104575.31
2018-08-03T13:01:13.671Z,104547.56
2018-08-03T13:02:53.654Z,104573.93
2018-08-03T13:04:31.303Z,104617.27
2018-08-03T13:06:10.622Z,104670.66
2018-08-03T13:07:47.643Z,104722.26
2018-08-03T13:09:26.375Z,104716.71
2018-08-03T13:11:05.662Z,104724.36
2018-08-03T13:12:42.167Z,104730.80
2018-08-03T13:14:18.592Z,104711.54
2018-08-03T13:15:56.442Z,104705.61
2018-08-03T13:17:34.248Z,104692.80
2018-08-03T13:19:12.555Z,104476.00
2018-08-03T13:20:50.215Z,104354.26
2018-08-03T13:22:26.608Z,104518.45
2018-08-03T13:24:05.293Z,104672.06
2018-08-03T13:25:44.694Z,104748.72
2018-08-03T13:27:22.069Z,104868.05
2018-08-03T13:28:59.122Z,104824.53
2018-08-03T13:30:39.875Z,104930.55
2018-08-03T13:32:17.726Z,104957.00
2018-08-03T13:33:54.917Z,104925.41
2018-08-03T13:35:34.358Z,104886.16
2018-08-03T13:37:11.951Z,104750.73
2018-08-03T13:38:48.400Z,104714.22
2018-08-03T13:40:29.300Z,104711.45
2018-08-03T13:42:07.371Z,104711.45
2018-08-03T13:43:45.176Z,104611.02
2018-08-03T13:45:22.979Z,104624.61
2018-08-03T13:48:27.853Z,104663.32
2018-08-03T13:50:05.097Z,104598.91
2018-08-03T13:51:41.823Z,104443.84
2018-08-03T13:53:19.244Z,104516.73
2018-08-03T13:54:56.579Z,104673.17
2018-08-03T13:56:33.112Z,104740.83
2018-08-03T13:58:10.483Z,104790.09
2018-08-03T13:59:57.650Z,104798.23
2018-08-03T14:01:51.839Z,104805.17
2018-08-03T14:03:30.812Z,104831.12
2018-08-03T14:05:09.789Z,104866.69
2018-08-03T14:06:48.568Z,104956.28
2018-08-03T14:08:25.794Z,104911.85
2018-08-03T14:10:11.963Z,104849.23
2018-08-03T14:11:56.342Z,104834.94
2018-08-03T14:13:33.671Z,104834.12
2018-08-03T14:15:10.636Z,104804.83
2018-08-03T14:17:33.841Z,104834.45
2018-08-03T14:19:10.840Z,104873.20
2018-08-03T14:20:47.385Z,104853.05
2018-08-03T14:22:23.829Z,104725.51
2018-08-03T14:24:00.461Z,104613.23
2018-08-03T14:25:39.580Z,104615.48
2018-08-03T14:27:17.810Z,104614.50
2018-08-03T14:30:44.080Z,104636.27
2018-08-03T14:32:21.587Z,104578.30
2018-08-03T14:33:58.039Z,104508.97
2018-08-03T14:35:45.679Z,104610.66
2018-08-03T14:37:25.679Z,104662.71
2018-08-03T14:39:06.105Z,104704.20
2018-08-03T14:40:44.625Z,104771.65
2018-08-03T14:42:23.525Z,104808.22
2018-08-03T14:44:00.400Z,104822.80
2018-08-03T14:45:37.272Z,104824.53
2018-08-03T14:47:15.662Z,104815.38
2018-08-03T14:48:57.457Z,104817.17
2018-08-03T14:50:34.631Z,104799.39
2018-08-03T14:52:11.441Z,104781.50
2018-08-03T14:53:51.513Z,104718.84
2018-08-03T14:55:30.643Z,104606.55
2018-08-03T14:57:09.676Z,104557.73
2018-08-03T14:58:46.116Z,104540.77
2018-08-03T15:00:27.583Z,104546.11
2018-08-03T15:02:04.619Z,104516.48
2018-08-03T15:03:41.151Z,104555.25
2018-08-03T15:05:19.921Z,104613.25
2018-08-03T15:06:56.816Z,104654.24
2018-08-03T15:08:33.780Z,104749.16
2018-08-03T15:10:10.915Z,104763.18
2018-08-03T15:11:47.316Z,104736.78
2018-08-03T15:13:25.895Z,104712.56
2018-08-03T15:15:03.455Z,104665.48
2018-08-03T15:16:41.097Z,104656.25
2018-08-03T15:18:18.254Z,104663.03
2018-08-03T15:19:55.147Z,104702.32
2018-08-03T15:21:32.444Z,104712.37
2018-08-03T15:23:09.612Z,104599.58
2018-08-03T15:24:47.023Z,104630.56
2018-08-03T15:26:24.689Z,104647.44
2018-08-03T15:28:02.632Z,104674.75
2018-08-03T15:29:39.116Z,104663.32
2018-08-03T15:31:16.357Z,104397.22
2018-08-03T15:32:52.738Z,104459.70
2018-08-03T15:34:33.929Z,104510.78
2018-08-03T15:36:10.666Z,104530.73
2018-08-03T15:37:47.375Z,104557.34
2018-08-03T15:39:24.232Z,104506.53
2018-08-03T15:41:01.818Z,104450.40
2018-08-03T15:42:39.406Z,104404.19
2018-08-03T15:44:15.702Z,104436.13
2018-08-03T15:45:55.609Z,104432.45
2018-08-03T15:47:32.513Z,104398.64
2018-08-03T15:49:10.647Z,104427.39
2018-08-03T15:50:47.823Z,104386.36
2018-08-03T15:52:26.337Z,104376.25
2018-08-03T15:54:05.922Z,104400.34
2018-08-03T15:55:43.816Z,104407.16
2018-08-03T15:57:21.240Z,104393.41
2018-08-03T15:58:58.081Z,104388.36
2018-08-03T16:00:35.059Z,104427.59
2018-08-03T16:02:12.225Z,104467.28
2018-08-03T16:03:48.647Z,104454.88
2018-08-03T16:05:25.920Z,104424.25
2018-08-03T16:07:03.047Z,104451.21
2018-08-03T16:08:41.417Z,104444.69
2018-08-03T16:10:19.515Z,104458.35
2018-08-03T16:11:57.552Z,104471.24
2018-08-03T16:13:34.355Z,104523.67
2018-08-03T16:15:14.551Z,104571.91
2018-08-03T16:16:51.765Z,104585.10
2018-08-03T16:18:29.174Z,104554.94
2018-08-03T16:20:06.510Z,104545.02
2018-08-03T16:21:45.220Z,104538.08
2018-08-03T16:23:22.626Z,104535.22
2018-08-03T16:24:59.426Z,104430.73
2018-08-03T16:26:35.922Z,104340.48
2018-08-03T16:28:13.133Z,104326.20
2018-08-03T16:29:49.556Z,104282.91
2018-08-03T16:31:26.736Z,104235.03
2018-08-03T16:33:03.743Z,104273.78
2018-08-03T16:34:41.781Z,104365.79
2018-08-03T16:36:20.321Z,104449.16
2018-08-03T16:38:02.524Z,104499.39
2018-08-03T16:39:39.115Z,104451.80
2018-08-03T16:41:16.138Z,104456.86
2018-08-03T16:42:56.413Z,104419.91
2018-08-03T16:44:33.327Z,104371.05
2018-08-03T16:46:11.704Z,104259.83
2018-08-03T16:47:49.764Z,104202.42
2018-08-03T16:49:27.262Z,104125.38
2018-08-03T16:51:06.764Z,104023.30
2018-08-03T16:52:45.873Z,104023.79
2018-08-03T16:54:23.437Z,103964.61
2018-08-03T16:56:00.914Z,104004.58
2018-08-03T16:57:37.763Z,103984.09
2018-08-03T16:59:14.250Z,103968.19
2018-08-03T17:00:51.635Z,103958.08
2018-08-03T17:02:29.431Z,103971.72
2018-08-03T17:04:06.886Z,103985.80
2018-08-03T17:05:43.454Z,104021.73
2018-08-03T17:07:19.920Z,103994.88
2018-08-03T17:09:00.710Z,103931.67
2018-08-03T17:10:40.222Z,103915.73
2018-08-03T17:12:20.020Z,103921.58
2018-08-03T17:14:00.657Z,103976.10
2018-08-03T17:15:39.839Z,104039.35
2018-08-03T17:17:20.546Z,104044.81
2018-08-03T17:19:02.606Z,104071.64
2018-08-03T17:20:40.593Z,104084.30
2018-08-03T17:22:17.602Z,103999.69
2018-08-03T17:23:54.092Z,103936.91
2018-08-03T17:25:33.876Z,103848.80
2018-08-03T17:27:10.986Z,103834.64
2018-08-03T17:28:53.273Z,103854.12
2018-08-03T17:30:36.329Z,103873.20
2018-08-03T17:32:13.064Z,103821.91
2018-08-03T17:33:50.993Z,103779.05
2018-08-03T17:35:28.393Z,103723.20
2018-08-03T17:37:06.437Z,103691.41
2018-08-03T17:38:43.560Z,103635.98
2018-08-03T17:40:21.430Z,103596.07
2018-08-03T17:42:09.667Z,103570.16
2018-08-03T17:43:47.339Z,103535.63
2018-08-03T17:45:25.231Z,103501.97
2018-08-03T17:47:02.597Z,103553.79
2018-08-03T17:48:40.293Z,103561.50
2018-08-03T17:50:19.257Z,103535.63
2018-08-03T17:51:58.858Z,103505.09
2018-08-03T17:53:46.500Z,103505.63
2018-08-03T17:55:23.470Z,103481.02
2018-08-03T17:57:00.492Z,103466.52
2018-08-03T17:58:37.733Z,103478.74
2018-08-03T18:00:16.633Z,103455.66
2018-08-03T18:02:07.546Z,103398.06
2018-08-03T18:03:45.325Z,103367.67
2018-08-03T18:05:22.299Z,103335.47
2018-08-03T18:07:01.597Z,103286.97
2018-08-03T18:08:40.762Z,103282.82
2018-08-03T18:11:53.564Z,103284.20
2018-08-03T18:13:33.210Z,103370.89
2018-08-03T18:16:58.403Z,103341.80
2018-08-03T18:18:35.636Z,103300.86
2018-08-03T18:20:16.303Z,103240.25
2018-08-03T18:21:56.428Z,103213.05
2018-08-03T18:23:35.581Z,103188.51
2018-08-03T18:25:12.068Z,103231.17
2018-08-03T18:26:52.589Z,103239.36
2018-08-03T18:28:31.703Z,103282.33
2018-08-03T18:30:10.555Z,103300.86
2018-08-03T18:31:53.544Z,103318.98
2018-08-03T18:33:30.203Z,103325.41
2018-08-03T18:35:08.436Z,103289.53
2018-08-03T18:36:45.829Z,103289.14
2018-08-03T18:38:23.352Z,103263.31
2018-08-03T18:39:59.865Z,103257.39
2018-08-03T18:41:37.765Z,103233.34
2018-08-03T18:43:14.796Z,103205.44
2018-08-03T18:44:52.428Z,103128.27
2018-08-03T18:46:31.254Z,103136.84
2018-08-03T18:48:09.904Z,103169.06
2018-08-03T18:49:48.498Z,103179.52
2018-08-03T18:51:26.583Z,103180.91
2018-08-03T18:53:05.908Z,103179.92
2018-08-03T18:54:42.506Z,103200.80
2018-08-03T18:56:19.738Z,103213.44
2018-08-03T18:57:58.557Z,103196.17
2018-08-03T18:59:35.528Z,103194.39
2018-08-03T19:01:15.607Z,103181.70